createdAt,value
2018-03-11T00:01:14.502Z,87.80
2018-03-11T00:03:17.041Z,88.31
2018-03-11T00:05:19.626Z,88.49
2018-03-11T00:07:22.255Z,88.44
2018-03-11T00:09:24.812Z,88.60
2018-03-11T00:11:27.291Z,88.98
2018-03-11T00:13:29.801Z,88.47
2018-03-11T00:15:32.289Z,89.01
2018-03-11T00:17:34.767Z,89.27
2018-03-11T00:19:37.281Z,89.34
2018-03-11T00:21:39.827Z,89.38
2018-03-11T00:23:42.376Z,89.58
2018-03-11T00:25:44.866Z,89.12
2018-03-11T00:27:47.346Z,89.41
2018-03-11T00:29:49.841Z,89.05
2018-03-11T00:31:52.377Z,88.83
2018-03-11T00:33:54.847Z,88.51
2018-03-11T00:35:57.343Z,88.47
2018-03-11T00:37:59.927Z,88.67
2018-03-11T00:40:02.383Z,89.21
2018-03-11T00:42:04.907Z,88.69
2018-03-11T00:44:07.509Z,88.51
2018-03-11T00:46:10.002Z,88.39
2018-03-11T00:48:12.461Z,88.41
2018-03-11T00:50:14.956Z,88.83
2018-03-11T00:52:17.437Z,89.55
2018-03-11T00:54:20.010Z,89.63
2018-03-11T00:56:22.462Z,89.51
2018-03-11T00:58:25.031Z,89.44
2018-03-11T01:00:27.478Z,89.18
2018-03-11T01:02:29.927Z,89.06
2018-03-11T01:04:32.440Z,89.15
2018-03-11T01:06:34.921Z,89.42
2018-03-11T01:08:38.033Z,88.89
2018-03-11T01:10:40.572Z,88.86
2018-03-11T01:12:43.127Z,89.18
2018-03-11T01:14:45.612Z,88.79
2018-03-11T01:16:48.100Z,88.85
2018-03-11T01:18:50.630Z,89.02
2018-03-11T01:20:53.093Z,88.70
2018-03-11T01:22:55.563Z,88.50
2018-03-11T01:24:58.070Z,88.74
2018-03-11T01:27:00.538Z,89.07
2018-03-11T01:29:02.973Z,89.21
2018-03-11T01:31:05.483Z,89.40
2018-03-11T01:33:07.972Z,89.80
2018-03-11T01:35:10.412Z,89.73
2018-03-11T01:37:12.932Z,89.79
2018-03-11T01:39:15.421Z,89.66
2018-03-11T01:41:17.936Z,89.66
2018-03-11T01:43:20.420Z,89.79
2018-03-11T01:45:22.867Z,89.71
2018-03-11T01:47:25.404Z,89.72
2018-03-11T01:49:27.856Z,89.79
2018-03-11T01:51:30.297Z,89.75
2018-03-11T01:53:32.797Z,89.15
2018-03-11T01:55:35.225Z,89.21
2018-03-11T01:57:37.692Z,89.32
2018-03-11T01:59:40.164Z,89.54
2018-03-11T02:01:42.729Z,89.14
2018-03-11T02:03:45.216Z,89.18
2018-03-11T02:05:47.682Z,88.99
2018-03-11T02:07:50.127Z,88.98
2018-03-11T02:09:52.598Z,89.05
2018-03-11T02:11:55.048Z,88.96
2018-03-11T02:13:57.512Z,89.34
2018-03-11T02:15:59.974Z,89.49
2018-03-11T02:18:02.441Z,89.41
2018-03-11T02:20:04.987Z,89.05
2018-03-11T02:22:07.583Z,89.15
2018-03-11T02:24:10.114Z,89.44
2018-03-11T02:26:12.672Z,89.19
2018-03-11T02:28:15.139Z,89.28
2018-03-11T02:30:17.625Z,89.70
2018-03-11T02:32:20.120Z,89.66
2018-03-11T02:34:22.649Z,89.31
2018-03-11T02:36:25.137Z,89.26
2018-03-11T02:38:27.587Z,89.36
2018-03-11T02:40:30.095Z,89.03
2018-03-11T02:42:32.570Z,89.28
2018-03-11T02:44:35.093Z,88.53
2018-03-11T02:46:37.612Z,88.65
2018-03-11T02:48:40.096Z,88.80
2018-03-11T02:50:42.632Z,88.91
2018-03-11T02:52:45.183Z,87.66
2018-03-11T02:54:47.632Z,87.77
2018-03-11T02:56:50.132Z,88.42
2018-03-11T02:58:52.669Z,88.54
2018-03-11T03:00:55.178Z,88.38
2018-03-11T03:02:57.634Z,88.26
2018-03-11T03:05:00.150Z,88.29
2018-03-11T03:07:02.592Z,88.65
2018-03-11T03:09:05.074Z,88.71
2018-03-11T03:11:07.574Z,89.03
2018-03-11T03:13:10.116Z,89.31
2018-03-11T03:15:12.574Z,89.59
2018-03-11T03:17:15.099Z,89.88
2018-03-11T03:19:17.588Z,90.31
2018-03-11T03:21:20.087Z,89.93
2018-03-11T03:23:22.529Z,90.32
2018-03-11T03:25:25.030Z,89.98
2018-03-11T03:27:27.571Z,89.83
2018-03-11T03:29:30.093Z,90.38
2018-03-11T03:31:32.594Z,89.91
2018-03-11T03:33:35.144Z,89.68
2018-03-11T03:35:37.633Z,90.07
2018-03-11T03:37:40.139Z,90.94
2018-03-11T03:39:42.650Z,91.08
2018-03-11T03:41:45.223Z,90.33
2018-03-11T03:43:47.669Z,91.04
2018-03-11T03:45:50.155Z,90.81
2018-03-11T03:47:52.704Z,90.16
2018-03-11T03:49:55.127Z,90.73
2018-03-11T03:51:57.683Z,91.16
2018-03-11T03:54:00.178Z,91.18
2018-03-11T03:56:02.667Z,90.60
2018-03-11T03:58:05.164Z,90.37
2018-03-11T04:00:07.657Z,90.66
2018-03-11T04:02:10.308Z,90.37
2018-03-11T04:04:12.761Z,90.73
2018-03-11T04:06:15.194Z,90.87
2018-03-11T04:08:17.754Z,91.60
2018-03-11T04:10:20.194Z,91.44
2018-03-11T04:12:22.687Z,91.45
2018-03-11T04:14:25.175Z,91.30
2018-03-11T04:16:27.710Z,91.78
2018-03-11T04:18:30.205Z,91.75
2018-03-11T04:20:32.683Z,91.97
2018-03-11T04:22:35.189Z,91.62
2018-03-11T04:24:37.699Z,91.53
2018-03-11T04:26:40.153Z,91.66
2018-03-11T04:28:42.663Z,92.10
2018-03-11T04:30:45.163Z,91.72
2018-03-11T04:32:47.653Z,90.95
2018-03-11T04:34:50.132Z,91.41
2018-03-11T04:36:52.603Z,91.02
2018-03-11T04:38:55.020Z,91.47
2018-03-11T04:40:57.524Z,91.70
2018-03-11T04:43:00.014Z,91.41
2018-03-11T04:45:02.477Z,91.89
2018-03-11T04:47:05.108Z,92.18
2018-03-11T04:49:07.531Z,92.20
2018-03-11T04:51:10.033Z,92.66
2018-03-11T04:53:12.583Z,92.41
2018-03-11T04:55:15.104Z,92.32
2018-03-11T04:57:17.675Z,92.77
2018-03-11T04:59:20.110Z,92.43
2018-03-11T05:01:22.655Z,92.79
2018-03-11T05:03:25.109Z,92.75
2018-03-11T05:05:27.564Z,93.74
2018-03-11T05:07:30.035Z,92.97
2018-03-11T05:09:32.485Z,92.74
2018-03-11T05:11:34.946Z,93.33
2018-03-11T05:13:37.388Z,93.68
2018-03-11T05:15:39.884Z,92.87
2018-03-11T05:17:42.410Z,93.41
2018-03-11T05:19:44.843Z,93.27
2018-03-11T05:21:47.314Z,93.21
2018-03-11T05:23:49.820Z,93.11
2018-03-11T05:25:52.277Z,93.47
2018-03-11T05:27:54.735Z,93.98
2018-03-11T05:29:57.250Z,93.78
2018-03-11T05:31:59.751Z,94.01
2018-03-11T05:34:02.268Z,94.14
2018-03-11T05:36:04.736Z,93.85
2018-03-11T05:38:07.231Z,93.91
2018-03-11T05:40:09.825Z,94.08
2018-03-11T05:42:12.419Z,94.25
2018-03-11T05:44:14.890Z,94.30
2018-03-11T05:46:17.370Z,94.14
2018-03-11T05:48:19.895Z,93.76
2018-03-11T05:50:22.415Z,93.59
2018-03-11T05:52:24.866Z,93.43
2018-03-11T05:54:27.335Z,93.91
2018-03-11T05:56:29.788Z,93.38
2018-03-11T05:58:32.291Z,92.86
2018-03-11T06:00:34.845Z,92.80
2018-03-11T06:02:37.280Z,91.43
2018-03-11T06:04:39.746Z,90.86
2018-03-11T06:06:42.226Z,90.45
2018-03-11T06:08:44.726Z,90.41
2018-03-11T06:10:47.186Z,90.05
2018-03-11T06:12:49.715Z,88.79
2018-03-11T06:14:52.287Z,87.79
2018-03-11T06:16:54.828Z,87.00
2018-03-11T06:18:57.396Z,86.80
2018-03-11T06:20:59.859Z,87.55
2018-03-11T06:23:02.396Z,86.99
2018-03-11T06:25:04.912Z,86.16
2018-03-11T06:27:07.369Z,86.83
2018-03-11T06:29:09.847Z,86.47
2018-03-11T06:31:12.281Z,87.08
2018-03-11T06:33:14.817Z,87.20
2018-03-11T06:35:17.344Z,86.83
2018-03-11T06:37:19.837Z,87.74
2018-03-11T06:39:22.375Z,87.54
2018-03-11T06:41:24.821Z,86.87
2018-03-11T06:43:27.261Z,87.29
2018-03-11T06:45:29.749Z,87.15
2018-03-11T06:47:32.224Z,87.11
2018-03-11T06:49:34.795Z,86.73
2018-03-11T06:51:37.244Z,86.65
2018-03-11T06:53:39.700Z,87.19
2018-03-11T06:55:42.246Z,86.70
2018-03-11T06:57:44.763Z,86.74
2018-03-11T06:59:47.241Z,86.75
2018-03-11T07:01:49.751Z,86.51
2018-03-11T07:03:52.241Z,86.09
2018-03-11T07:05:54.730Z,86.30
2018-03-11T07:07:57.199Z,86.25
2018-03-11T07:09:59.717Z,86.12
2018-03-11T07:12:02.304Z,85.95
2018-03-11T07:14:04.745Z,85.51
2018-03-11T07:16:07.305Z,85.57
2018-03-11T07:18:09.820Z,85.61
2018-03-11T07:20:12.391Z,85.59
2018-03-11T07:22:14.928Z,85.85
2018-03-11T07:24:17.354Z,85.32
2018-03-11T07:26:19.920Z,84.33
2018-03-11T07:28:23.600Z,85.02
2018-03-11T07:30:26.071Z,84.42
2018-03-11T07:32:28.562Z,84.48
2018-03-11T07:34:31.172Z,84.93
2018-03-11T07:36:33.772Z,85.29
2018-03-11T07:38:36.362Z,84.86
2018-03-11T07:40:38.834Z,84.13
2018-03-11T07:42:41.302Z,83.97
2018-03-11T07:44:43.824Z,83.30
2018-03-11T07:46:46.336Z,82.96
2018-03-11T07:48:48.837Z,82.21
2018-03-11T07:50:51.356Z,81.79
2018-03-11T07:52:53.807Z,81.66
2018-03-11T07:54:56.322Z,81.97
2018-03-11T07:56:58.827Z,81.21
2018-03-11T07:59:01.322Z,81.39
2018-03-11T08:01:03.814Z,81.72
2018-03-11T08:03:06.390Z,81.19
2018-03-11T08:05:08.985Z,81.51
2018-03-11T08:07:11.481Z,82.07
2018-03-11T08:09:14.067Z,80.93
2018-03-11T08:11:16.600Z,80.52
2018-03-11T08:13:19.031Z,79.70
2018-03-11T08:15:22.211Z,79.47
2018-03-11T08:17:24.721Z,79.85
2018-03-11T08:19:27.176Z,80.50
2018-03-11T08:21:29.630Z,80.88
2018-03-11T08:23:32.232Z,80.15
2018-03-11T08:25:34.772Z,79.09
2018-03-11T08:27:37.258Z,78.51
2018-03-11T08:29:39.752Z,79.41
2018-03-11T08:31:42.249Z,79.83
2018-03-11T08:33:44.698Z,78.64
2018-03-11T08:35:47.205Z,78.62
2018-03-11T08:37:49.673Z,79.43
2018-03-11T08:39:52.202Z,79.14
2018-03-11T08:41:54.802Z,78.92
2018-03-11T08:43:57.376Z,78.91
2018-03-11T08:45:59.850Z,78.56
2018-03-11T08:48:02.312Z,78.93
2018-03-11T08:50:04.774Z,78.56
2018-03-11T08:52:07.266Z,78.66
2018-03-11T08:54:09.741Z,78.75
2018-03-11T08:56:12.226Z,78.55
2018-03-11T08:58:14.765Z,79.44
2018-03-11T09:00:17.242Z,80.27
2018-03-11T09:02:19.759Z,80.21
2018-03-11T09:04:22.197Z,79.81
2018-03-11T09:06:24.688Z,79.69
2018-03-11T09:08:27.192Z,78.37
2018-03-11T09:10:29.752Z,77.60
2018-03-11T09:12:32.213Z,78.28
2018-03-11T09:14:34.687Z,77.79
2018-03-11T09:16:37.186Z,76.28
2018-03-11T09:18:39.668Z,76.95
2018-03-11T09:20:42.149Z,75.47
2018-03-11T09:22:44.751Z,75.31
2018-03-11T09:24:47.242Z,76.15
2018-03-11T09:26:49.740Z,77.23
2018-03-11T09:28:52.228Z,76.50
2018-03-11T09:30:54.712Z,76.05
2018-03-11T09:32:57.431Z,75.80
2018-03-11T09:34:59.883Z,76.05
2018-03-11T09:37:02.383Z,77.38
2018-03-11T09:39:04.841Z,77.13
2018-03-11T09:41:07.343Z,76.86
2018-03-11T09:43:09.942Z,77.45
2018-03-11T09:45:12.400Z,77.34
2018-03-11T09:47:14.906Z,77.72
2018-03-11T09:49:17.459Z,77.51
2018-03-11T09:51:19.912Z,77.84
2018-03-11T09:53:22.519Z,77.47
2018-03-11T09:55:25.018Z,76.70
2018-03-11T09:57:27.547Z,76.76
2018-03-11T09:59:30.073Z,77.60
2018-03-11T10:01:32.579Z,77.21
2018-03-11T10:03:35.118Z,75.86
2018-03-11T10:05:37.632Z,76.15
2018-03-11T10:07:40.104Z,76.01
2018-03-11T10:09:42.706Z,76.12
2018-03-11T10:11:45.298Z,75.96
2018-03-11T10:13:47.747Z,76.33
2018-03-11T10:15:50.239Z,76.70
2018-03-11T10:17:52.709Z,76.98
2018-03-11T10:19:55.238Z,77.51
2018-03-11T10:21:57.740Z,77.21
2018-03-11T10:24:00.203Z,77.27
2018-03-11T10:26:02.747Z,75.63
2018-03-11T10:28:05.190Z,74.45
2018-03-11T10:30:07.702Z,75.02
2018-03-11T10:32:10.299Z,75.79
2018-03-11T10:34:12.822Z,74.31
2018-03-11T10:36:15.414Z,74.63
2018-03-11T10:38:17.949Z,75.91
2018-03-11T10:40:20.477Z,75.83
2018-03-11T10:42:23.007Z,76.13
2018-03-11T10:44:25.481Z,76.76
2018-03-11T10:46:28.002Z,78.22
2018-03-11T10:48:30.582Z,76.90
2018-03-11T10:50:33.074Z,77.08
2018-03-11T10:52:35.572Z,76.94
2018-03-11T10:54:38.100Z,77.05
2018-03-11T10:58:52.254Z,77.25
2018-03-11T11:00:54.749Z,77.02
2018-03-11T11:03:02.854Z,76.41
2018-03-11T11:05:05.383Z,76.07
2018-03-11T11:07:07.913Z,76.57
2018-03-11T11:09:10.390Z,76.54
2018-03-11T11:11:12.868Z,76.55
2018-03-11T11:13:15.349Z,76.31
2018-03-11T11:15:17.839Z,77.08
2018-03-11T11:17:20.358Z,75.77
2018-03-11T11:19:22.917Z,75.44
2018-03-11T11:21:25.390Z,75.92
2018-03-11T11:23:27.869Z,76.60
2018-03-11T11:25:30.460Z,75.89
2018-03-11T11:27:32.928Z,76.29
2018-03-11T11:29:35.381Z,76.48
2018-03-11T11:31:37.899Z,76.20
2018-03-11T11:33:40.433Z,75.90
2018-03-11T11:35:42.999Z,76.31
2018-03-11T11:37:45.475Z,77.07
2018-03-11T11:39:48.050Z,78.57
2018-03-11T11:41:50.494Z,77.76
2018-03-11T11:43:53.052Z,77.99
2018-03-11T11:45:55.591Z,77.88
2018-03-11T11:47:58.082Z,77.21
2018-03-11T11:50:00.614Z,77.24
2018-03-11T11:52:03.080Z,77.27
2018-03-11T11:54:05.573Z,77.12
2018-03-11T11:56:08.101Z,76.76
2018-03-11T11:58:10.697Z,77.74
2018-03-11T12:00:13.108Z,76.56
2018-03-11T12:02:15.574Z,75.68
2018-03-11T12:04:18.086Z,75.34
2018-03-11T12:06:20.563Z,75.39
2018-03-11T12:08:23.074Z,75.25
2018-03-11T12:10:25.654Z,75.43
2018-03-11T12:12:28.210Z,75.44
2018-03-11T12:14:30.708Z,74.63
2018-03-11T12:16:33.201Z,74.85
2018-03-11T12:18:35.745Z,75.59
2018-03-11T12:20:38.331Z,74.20
2018-03-11T12:22:40.836Z,74.83
2018-03-11T12:24:43.413Z,74.60
2018-03-11T12:26:45.855Z,74.66
2018-03-11T12:28:48.415Z,74.41
2018-03-11T12:30:50.854Z,73.73
2018-03-11T12:32:53.381Z,74.16
2018-03-11T12:34:56.404Z,74.15
2018-03-11T12:36:59.135Z,73.59
2018-03-11T12:39:01.592Z,74.23
2018-03-11T12:41:04.146Z,73.25
2018-03-11T12:43:06.596Z,73.19
2018-03-11T12:45:09.122Z,73.92
2018-03-11T12:47:11.730Z,73.34
2018-03-11T12:49:14.130Z,73.48
2018-03-11T12:51:16.626Z,73.49
2018-03-11T12:53:19.235Z,73.62
2018-03-11T12:55:21.935Z,74.06
2018-03-11T12:57:24.465Z,74.13
2018-03-11T12:59:27.022Z,73.78
2018-03-11T13:01:29.453Z,73.72
2018-03-11T13:03:31.941Z,73.76
2018-03-11T13:05:34.494Z,72.91
2018-03-11T13:07:36.955Z,73.57
2018-03-11T13:09:39.455Z,73.51
2018-03-11T13:11:41.889Z,74.26
2018-03-11T13:13:44.406Z,74.38
2018-03-11T13:15:46.869Z,74.47
2018-03-11T13:17:49.365Z,73.77
2018-03-11T13:22:28.489Z,73.20
2018-03-11T13:24:30.996Z,72.06
2018-03-11T13:26:33.501Z,70.87
2018-03-11T13:28:46.859Z,70.73
2018-03-11T13:30:49.308Z,69.64
2018-03-11T13:33:03.599Z,70.70
2018-03-11T13:35:06.112Z,69.13
2018-03-11T13:37:08.594Z,68.67
2018-03-11T13:39:22.964Z,69.42
2018-03-11T13:41:25.471Z,68.70
2018-03-11T13:43:27.946Z,68.51
2018-03-11T13:45:42.097Z,68.64
2018-03-11T13:47:44.571Z,67.94
2018-03-11T13:49:47.044Z,68.17
2018-03-11T13:52:01.346Z,67.23
2018-03-11T13:54:03.761Z,66.23
2018-03-11T13:56:06.249Z,66.88
2018-03-11T13:58:29.319Z,66.37
2018-03-11T14:00:31.800Z,66.07
2018-03-11T14:02:34.330Z,66.36
2018-03-11T14:04:36.811Z,65.98
2018-03-11T14:06:39.324Z,66.51
2018-03-11T14:08:41.806Z,65.30
2018-03-11T14:10:44.261Z,65.16
2018-03-11T14:12:46.753Z,65.72
2018-03-11T14:14:49.303Z,65.68
2018-03-11T14:16:51.791Z,64.69
2018-03-11T14:18:54.338Z,64.34
2018-03-11T14:20:56.897Z,64.55
2018-03-11T14:22:59.372Z,64.72
2018-03-11T14:25:01.911Z,64.68
2018-03-11T14:27:04.457Z,64.24
2018-03-11T14:29:06.897Z,64.24
2018-03-11T14:31:09.411Z,64.34
2018-03-11T14:33:11.908Z,63.97
2018-03-11T14:35:14.583Z,63.62
2018-03-11T14:37:17.062Z,63.29
2018-03-11T14:39:19.526Z,63.99
2018-03-11T14:41:22.022Z,64.74
2018-03-11T14:43:24.550Z,64.34
2018-03-11T14:45:27.026Z,64.64
2018-03-11T14:47:29.536Z,65.28
2018-03-11T14:49:32.010Z,65.77
2018-03-11T14:51:34.497Z,65.21
2018-03-11T14:53:37.017Z,65.83
2018-03-11T14:55:39.715Z,65.90
2018-03-11T14:57:42.215Z,66.57
2018-03-11T14:59:44.662Z,66.34
2018-03-11T15:01:47.192Z,66.78
2018-03-11T15:03:49.646Z,66.95
2018-03-11T15:05:52.090Z,66.97
2018-03-11T15:07:54.650Z,67.08
2018-03-11T15:09:57.166Z,66.93
2018-03-11T15:11:59.653Z,67.30
2018-03-11T15:14:02.197Z,67.17
2018-03-11T15:16:04.735Z,66.03
2018-03-11T15:18:07.361Z,66.94
2018-03-11T15:20:09.866Z,67.10
2018-03-11T15:22:12.433Z,67.07
2018-03-11T15:24:14.940Z,66.69
2018-03-11T15:26:17.548Z,66.79
2018-03-11T15:28:19.975Z,66.02
2018-03-11T15:30:22.611Z,65.92
2018-03-11T15:32:25.097Z,66.15
2018-03-11T15:34:27.581Z,66.08
2018-03-11T15:36:30.191Z,66.12
2018-03-11T15:38:32.698Z,66.98
2018-03-11T15:40:35.349Z,67.01
2018-03-11T15:42:37.972Z,67.04
2018-03-11T15:44:40.511Z,67.08
2018-03-11T15:46:42.962Z,67.36
2018-03-11T15:48:45.568Z,67.03
2018-03-11T15:50:48.017Z,67.40
2018-03-11T15:52:50.484Z,67.80
2018-03-11T15:54:52.996Z,68.66
2018-03-11T15:56:55.502Z,70.10
2018-03-11T15:58:57.972Z,69.04
2018-03-11T16:01:00.518Z,69.38
2018-03-11T16:03:03.088Z,70.05
2018-03-11T16:05:05.714Z,70.24
2018-03-11T16:07:08.304Z,70.89
2018-03-11T16:09:10.769Z,71.48
2018-03-11T16:11:13.243Z,71.74
2018-03-11T16:13:15.702Z,71.81
2018-03-11T16:15:18.384Z,71.93
2018-03-11T16:17:20.866Z,71.10
2018-03-11T16:19:23.361Z,71.26
2018-03-11T16:21:25.922Z,71.03
2018-03-11T16:23:28.421Z,70.90
2018-03-11T16:25:31.010Z,71.26
2018-03-11T16:27:33.513Z,71.25
2018-03-11T16:29:35.993Z,71.40
2018-03-11T16:31:38.484Z,71.55
2018-03-11T16:33:40.954Z,71.55
2018-03-11T16:35:43.469Z,71.34
2018-03-11T16:37:46.016Z,72.20
2018-03-11T16:39:48.501Z,72.97
2018-03-11T16:41:50.992Z,73.48
2018-03-11T16:43:53.483Z,73.89
2018-03-11T16:45:55.921Z,74.02
2018-03-11T16:47:58.463Z,74.31
2018-03-11T16:50:00.923Z,74.40
2018-03-11T16:52:03.427Z,74.46
2018-03-11T16:54:05.937Z,74.86
2018-03-11T16:56:08.462Z,74.85
2018-03-11T16:58:11.110Z,75.47
2018-03-11T17:00:13.594Z,75.47
2018-03-11T17:02:16.163Z,75.45
2018-03-11T17:04:18.633Z,75.62
2018-03-11T17:06:21.142Z,75.20
2018-03-11T17:08:23.708Z,75.57
2018-03-11T17:10:26.304Z,75.44
2018-03-11T17:12:28.753Z,75.23
2018-03-11T17:14:31.320Z,75.68
2018-03-11T17:16:33.818Z,75.99
2018-03-11T17:18:36.352Z,76.18
2018-03-11T17:20:38.830Z,76.41
2018-03-11T17:22:41.851Z,77.02
2018-03-11T17:24:44.530Z,76.21
2018-03-11T17:26:47.038Z,75.86
2018-03-11T17:28:49.549Z,76.78
2018-03-11T17:30:52.057Z,77.06
2018-03-11T17:32:54.598Z,77.15
2018-03-11T17:34:57.250Z,77.32
2018-03-11T17:36:59.762Z,77.64
2018-03-11T17:39:02.299Z,77.61
2018-03-11T17:41:04.834Z,77.67
2018-03-11T17:43:07.348Z,78.22
2018-03-11T17:45:09.918Z,78.21
2018-03-11T17:47:12.449Z,77.89
2018-03-11T17:49:14.945Z,77.89
2018-03-11T17:51:17.434Z,77.94
2018-03-11T17:53:19.993Z,77.99
2018-03-11T17:55:22.583Z,78.19
2018-03-11T17:57:25.268Z,78.35
2018-03-11T17:59:27.788Z,78.60
2018-03-11T18:01:30.424Z,79.19
2018-03-11T18:03:32.876Z,79.15
2018-03-11T18:05:35.463Z,79.56
2018-03-11T18:07:37.963Z,79.71
2018-03-11T18:09:40.550Z,79.87
2018-03-11T18:11:43.125Z,80.18
2018-03-11T18:13:45.749Z,80.40
2018-03-11T18:15:48.252Z,80.60
2018-03-11T18:17:50.816Z,80.69
2018-03-11T18:19:53.302Z,80.67
2018-03-11T18:21:55.759Z,80.50
2018-03-11T18:23:58.264Z,80.88
2018-03-11T18:26:00.742Z,80.41
2018-03-11T18:28:03.488Z,79.33
2018-03-11T18:30:05.980Z,79.81
2018-03-11T18:32:08.462Z,78.82
2018-03-11T18:34:11.077Z,79.23
2018-03-11T18:36:13.616Z,78.99
2018-03-11T18:38:16.104Z,79.09
2018-03-11T18:40:18.609Z,79.72
2018-03-11T18:42:21.219Z,80.25
2018-03-11T18:44:23.700Z,80.42
2018-03-11T18:46:26.160Z,80.61
2018-03-11T18:48:28.679Z,81.14
2018-03-11T18:50:31.151Z,80.72
2018-03-11T18:52:33.675Z,80.30
2018-03-11T18:54:36.268Z,80.30
2018-03-11T18:56:38.813Z,80.67
2018-03-11T18:58:41.319Z,81.04
2018-03-11T19:00:43.870Z,81.52
2018-03-11T19:02:46.392Z,81.81
2018-03-11T19:04:49.000Z,82.29
2018-03-11T19:06:51.588Z,82.27
2018-03-11T19:08:54.386Z,82.39
2018-03-11T19:10:56.864Z,82.42
2018-03-11T19:12:59.540Z,82.86
2018-03-11T19:15:02.142Z,82.75
2018-03-11T19:17:04.625Z,83.14
2018-03-11T19:19:07.168Z,83.27
2018-03-11T19:21:09.771Z,83.34
2018-03-11T19:23:12.446Z,83.47
2018-03-11T19:25:15.008Z,83.52
2018-03-11T19:27:17.656Z,83.13
2018-03-11T19:29:20.131Z,83.34
2018-03-11T19:31:22.693Z,83.61
2018-03-11T19:33:25.195Z,83.64
2018-03-11T19:35:27.729Z,83.79
2018-03-11T19:37:30.249Z,83.58
2018-03-11T19:39:32.751Z,83.36
2018-03-11T19:41:35.301Z,83.65
2018-03-11T19:43:37.781Z,82.21
2018-03-11T19:45:40.389Z,81.91
2018-03-11T19:47:42.858Z,81.69
2018-03-11T19:49:45.310Z,81.84
2018-03-11T19:51:47.863Z,82.12
2018-03-11T19:53:50.370Z,82.24
2018-03-11T19:55:53.013Z,82.78
2018-03-11T19:57:55.430Z,82.26
2018-03-11T19:59:58.047Z,81.36
2018-03-11T20:02:00.553Z,81.19
2018-03-11T20:04:03.048Z,81.67
2018-03-11T20:06:05.566Z,82.21
2018-03-11T20:08:08.102Z,82.53
2018-03-11T20:10:10.529Z,82.68
2018-03-11T20:12:13.035Z,82.16
2018-03-11T20:14:15.575Z,82.13
2018-03-11T20:16:18.154Z,82.42
2018-03-11T20:18:20.691Z,82.17
2018-03-11T20:20:23.192Z,82.10
2018-03-11T20:22:25.686Z,82.39
2018-03-11T20:24:28.209Z,82.42
2018-03-11T20:26:30.739Z,82.77
2018-03-11T20:28:33.200Z,83.06
2018-03-11T20:30:35.724Z,82.94
2018-03-11T20:32:38.274Z,82.86
2018-03-11T20:34:40.764Z,83.10
2018-03-11T20:36:43.299Z,83.14
2018-03-11T20:38:45.816Z,83.45
2018-03-11T20:40:48.313Z,83.39
2018-03-11T20:42:51.010Z,83.55
2018-03-11T20:44:53.612Z,84.00
2018-03-11T20:46:56.105Z,83.85
2018-03-11T20:48:58.626Z,84.10
2018-03-11T20:51:01.188Z,82.47
2018-03-11T20:53:03.683Z,82.81
2018-03-11T20:55:06.225Z,83.48
2018-03-11T20:57:08.798Z,83.29
2018-03-11T20:59:11.221Z,82.71
2018-03-11T21:01:13.740Z,82.72
2018-03-11T21:03:16.262Z,82.75
2018-03-11T21:05:18.741Z,83.36
2018-03-11T21:07:21.240Z,83.41
2018-03-11T21:09:23.933Z,82.81
2018-03-11T21:11:26.533Z,83.06
2018-03-11T21:13:28.995Z,83.32
2018-03-11T21:15:31.511Z,83.28
2018-03-11T21:17:34.110Z,83.35
2018-03-11T21:19:36.590Z,83.67
2018-03-11T21:21:39.180Z,83.75
2018-03-11T21:23:41.697Z,84.40
2018-03-11T21:25:44.235Z,84.46
2018-03-11T21:27:46.745Z,84.57
2018-03-11T21:29:49.287Z,84.51
2018-03-11T21:31:51.800Z,84.67
2018-03-11T21:33:54.250Z,85.24
2018-03-11T21:35:56.751Z,85.01
2018-03-11T21:37:59.256Z,84.76
2018-03-11T21:40:01.771Z,85.00
2018-03-11T21:42:04.311Z,85.03
2018-03-11T21:44:06.795Z,85.09
2018-03-11T21:46:09.290Z,85.34
2018-03-11T21:48:11.746Z,85.58
2018-03-11T21:50:14.199Z,85.60
2018-03-11T21:52:16.722Z,85.64
2018-03-11T21:54:19.214Z,85.71
2018-03-11T21:56:21.697Z,85.06
2018-03-11T21:58:24.282Z,84.78
2018-03-11T22:00:26.809Z,84.67
2018-03-11T22:02:30.087Z,84.30
2018-03-11T22:04:32.580Z,84.50
2018-03-11T22:06:35.177Z,84.68
2018-03-11T22:08:37.783Z,84.81
2018-03-11T22:10:40.362Z,84.67
2018-03-11T22:12:42.830Z,84.71
2018-03-11T22:14:45.432Z,85.06
2018-03-11T22:16:47.941Z,85.79
2018-03-11T22:18:50.444Z,85.55
2018-03-11T22:20:52.919Z,86.21
2018-03-11T22:22:55.376Z,86.21
2018-03-11T22:24:57.917Z,86.27
2018-03-11T22:27:00.410Z,85.86
2018-03-11T22:29:02.852Z,85.97
2018-03-11T22:31:05.400Z,86.18
2018-03-11T22:33:07.847Z,86.51
2018-03-11T22:35:10.842Z,86.72
2018-03-11T22:37:13.322Z,87.26
2018-03-11T22:39:15.803Z,87.15
2018-03-11T22:41:18.257Z,87.12
2018-03-11T22:43:20.775Z,87.30
2018-03-11T22:45:23.267Z,87.43
2018-03-11T22:47:25.848Z,87.70
2018-03-11T22:49:28.283Z,87.57
2018-03-11T22:51:30.786Z,87.96
2018-03-11T22:53:33.330Z,87.51
2018-03-11T22:55:35.797Z,87.54
2018-03-11T22:57:38.393Z,87.54
2018-03-11T22:59:40.837Z,87.69
2018-03-11T23:01:43.263Z,88.02
2018-03-11T23:03:45.793Z,88.16
2018-03-11T23:05:48.313Z,88.20
2018-03-11T23:07:50.740Z,88.30
2018-03-11T23:09:53.277Z,88.25
2018-03-11T23:11:55.761Z,88.43
2018-03-11T23:13:58.236Z,88.35
2018-03-11T23:16:00.757Z,88.59
2018-03-11T23:18:03.238Z,88.50
2018-03-11T23:20:05.687Z,88.57
2018-03-11T23:22:08.176Z,88.82
2018-03-11T23:24:10.726Z,88.94
2018-03-11T23:26:13.183Z,88.88
2018-03-11T23:28:15.711Z,88.93
2018-03-11T23:30:18.153Z,88.91
2018-03-11T23:32:20.606Z,88.94
2018-03-11T23:34:23.073Z,88.87
2018-03-11T23:36:25.522Z,89.00
2018-03-11T23:38:28.181Z,89.14
2018-03-11T23:40:30.631Z,89.28
2018-03-11T23:42:33.073Z,89.27
2018-03-11T23:44:35.541Z,89.29
2018-03-11T23:46:37.973Z,89.34
2018-03-11T23:48:40.454Z,89.25
2018-03-11T23:50:42.892Z,89.25
2018-03-11T23:52:45.373Z,89.50
2018-03-11T23:54:47.876Z,89.52
2018-03-11T23:56:50.411Z,89.63
2018-03-11T23:58:52.862Z,89.57
